createdAt,value
2023-02-22T00:03:35.113Z,11.50
2023-02-22T00:08:40.528Z,12.43
2023-02-22T00:13:45.396Z,12.20
2023-02-22T00:18:49.164Z,12.73
2023-02-22T00:23:55.043Z,11.80
2023-02-22T00:28:58.543Z,12.17
2023-02-22T00:34:02.045Z,12.32
2023-02-22T00:39:07.816Z,12.20
2023-02-22T00:44:12.056Z,13.43
2023-02-22T00:49:15.483Z,12.23
2023-02-22T00:54:20.998Z,11.13
2023-02-22T00:59:24.352Z,11.63
2023-02-22T01:04:27.877Z,9.48
2023-02-22T01:09:33.125Z,12.52
2023-02-22T01:14:36.524Z,12.80
2023-02-22T01:19:42.823Z,10.82
2023-02-22T01:24:47.734Z,11.10
2023-02-22T01:29:51.459Z,9.60
2023-02-22T01:34:55.236Z,11.63
2023-02-22T01:40:00.090Z,10.88
2023-02-22T01:45:37.261Z,11.60
2023-02-22T01:50:45.586Z,11.13
2023-02-22T01:55:52.049Z,10.17
2023-02-22T02:00:55.757Z,12.73
2023-02-22T02:06:02.375Z,12.00
2023-02-22T02:11:09.683Z,10.60
2023-02-22T02:16:13.219Z,10.93
2023-02-22T02:21:52.165Z,10.55
2023-02-22T02:27:17.475Z,10.07
2023-02-22T02:32:36.773Z,9.97
2023-02-22T02:37:50.097Z,8.97
2023-02-22T02:43:02.897Z,11.75
2023-02-22T02:48:10.469Z,11.20
2023-02-22T02:53:17.288Z,9.63
2023-02-22T02:58:23.719Z,10.97
2023-02-22T03:03:52.101Z,12.17
2023-02-22T03:09:02.850Z,10.93
2023-02-22T03:14:18.298Z,9.80
2023-02-22T03:19:29.724Z,11.37
2023-02-22T03:24:38.734Z,10.00
2023-02-22T03:29:46.754Z,11.43
2023-02-22T03:34:59.278Z,11.50
2023-02-22T03:40:14.126Z,10.70
2023-02-22T03:45:21.412Z,9.93
2023-02-22T03:50:30.333Z,10.53
2023-02-22T03:55:34.020Z,9.80
2023-02-22T04:00:37.677Z,10.60
2023-02-22T04:10:46.197Z,10.97
2023-02-22T04:20:54.291Z,10.50
2023-02-22T04:25:57.769Z,9.90
2023-02-22T04:31:01.215Z,10.10
2023-02-22T04:36:06.697Z,9.75
2023-02-22T04:41:10.104Z,10.67
2023-02-22T04:46:13.933Z,10.50
2023-02-22T04:51:20.210Z,10.57
2023-02-22T04:56:23.731Z,10.47
2023-02-22T05:01:27.152Z,10.30
2023-02-22T05:06:32.108Z,10.40
2023-02-22T05:11:35.597Z,10.60
2023-02-22T05:16:39.352Z,9.38
2023-02-22T05:21:44.105Z,9.63
2023-02-22T05:26:47.860Z,9.17
2023-02-22T05:31:51.477Z,10.02
2023-02-22T05:36:56.402Z,10.65
2023-02-22T05:41:59.839Z,12.00
2023-02-22T05:47:03.429Z,11.07
2023-02-22T05:52:08.484Z,10.55
2023-02-22T05:57:11.889Z,9.77
2023-02-22T06:02:15.456Z,10.27
2023-02-22T06:07:20.301Z,11.07
2023-02-22T06:12:23.874Z,11.30
2023-02-22T06:17:27.436Z,11.30
2023-02-22T06:22:32.704Z,10.82
2023-02-22T06:27:37.533Z,11.90
2023-02-22T06:32:40.936Z,12.20
2023-02-22T06:37:45.945Z,11.97
2023-02-22T06:42:50.413Z,14.73
2023-02-22T06:47:53.976Z,11.10
2023-02-22T06:52:59.530Z,13.02
2023-02-22T06:58:04.165Z,13.07
2023-02-22T07:03:07.711Z,11.85
2023-02-22T07:08:13.454Z,12.77
2023-02-22T07:13:16.913Z,12.85
2023-02-22T07:18:20.319Z,13.77
2023-02-22T07:23:25.699Z,13.63
2023-02-22T07:28:29.144Z,12.70
2023-02-22T07:33:32.619Z,13.68
2023-02-22T07:38:38.955Z,12.70
2023-02-22T07:48:45.504Z,13.65
2023-02-22T07:53:50.362Z,12.52
2023-02-22T08:03:57.113Z,13.10
2023-02-22T08:09:01.990Z,12.75
2023-02-22T08:19:08.716Z,12.10
2023-02-22T08:24:13.545Z,11.80
2023-02-22T08:34:20.068Z,12.35
2023-02-22T08:39:24.964Z,11.82
2023-02-22T08:44:28.381Z,12.50
2023-02-22T08:49:31.947Z,13.13
2023-02-22T08:54:36.911Z,10.82
2023-02-22T08:59:40.518Z,11.50
2023-02-22T09:04:44.104Z,12.40
2023-02-22T09:09:49.136Z,11.18
2023-02-22T09:14:52.606Z,11.25
2023-02-22T09:19:56.557Z,11.25
2023-02-22T09:25:11.427Z,11.03
2023-02-22T09:30:24.027Z,9.95
2023-02-22T09:35:28.602Z,10.20
2023-02-22T09:40:41.249Z,11.20
2023-02-22T09:46:06.416Z,10.35
2023-02-22T09:56:22.706Z,9.32
2023-02-22T10:01:32.780Z,9.15
2023-02-22T10:06:36.891Z,9.00
2023-02-22T10:11:53.743Z,8.95
2023-02-22T10:17:06.512Z,10.67
2023-02-22T10:22:30.199Z,10.43
2023-02-22T10:27:41.460Z,10.53
2023-02-22T10:32:49.187Z,10.23
2023-02-22T10:37:55.779Z,10.00
2023-02-22T10:43:03.207Z,9.37
2023-02-22T10:48:11.742Z,9.47
2023-02-22T10:53:16.732Z,9.73
2023-02-22T10:58:21.896Z,9.73
2023-02-22T11:03:26.047Z,9.40
2023-02-22T11:08:33.030Z,9.50
2023-02-22T11:13:40.896Z,9.50
2023-02-22T11:18:44.547Z,9.67
2023-02-22T11:23:47.998Z,9.63
2023-02-22T11:28:56.454Z,9.97
2023-02-22T11:34:02.378Z,8.93
2023-02-22T11:39:11.636Z,8.53
2023-02-22T11:44:28.403Z,8.37
2023-02-22T11:49:36.041Z,8.43
2023-02-22T11:55:03.130Z,9.37
2023-02-22T12:00:24.818Z,9.80
2023-02-22T12:05:40.930Z,9.63
2023-02-22T12:10:55.758Z,8.97
2023-02-22T12:16:11.434Z,10.17
2023-02-22T12:21:18.183Z,9.80
2023-02-22T12:26:27.184Z,9.67
2023-02-22T12:31:37.453Z,8.53
2023-02-22T12:36:47.254Z,8.60
2023-02-22T12:41:55.943Z,8.07
2023-02-22T12:47:02.685Z,7.87
2023-02-22T12:52:21.630Z,8.10
2023-02-22T12:57:38.613Z,7.77
2023-02-22T13:02:47.372Z,7.83
2023-02-22T13:08:02.945Z,8.63
2023-02-22T13:13:17.403Z,7.40
2023-02-22T13:18:30.145Z,7.85
2023-02-22T13:23:43.770Z,6.87
2023-02-22T13:28:52.308Z,7.30
2023-02-22T13:34:16.607Z,7.47
2023-02-22T13:39:47.366Z,7.35
2023-02-22T13:45:27.226Z,6.70
2023-02-22T13:50:51.708Z,8.23
2023-02-22T13:55:58.079Z,6.75
2023-02-22T14:01:01.954Z,6.17
2023-02-22T14:06:08.549Z,7.32
2023-02-22T14:11:57.200Z,6.93
2023-02-22T14:17:24.962Z,7.20
2023-02-22T14:22:30.995Z,7.37
2023-02-22T14:27:42.096Z,7.57
2023-02-22T14:32:49.242Z,7.40
2023-02-22T14:37:59.234Z,6.90
2023-02-22T14:43:07.784Z,6.97
2023-02-22T14:48:21.665Z,7.87
2023-02-22T14:53:31.721Z,8.20
2023-02-22T14:58:42.039Z,7.87
2023-02-22T15:03:45.570Z,8.03
2023-02-22T15:09:06.269Z,7.78
2023-02-22T15:14:25.779Z,8.03
2023-02-22T15:19:32.947Z,7.37
2023-02-22T15:24:39.713Z,8.17
2023-02-22T15:29:45.824Z,8.63
2023-02-22T15:34:49.382Z,8.27
2023-02-22T15:39:59.684Z,8.38
2023-02-22T15:45:03.532Z,7.63
2023-02-22T15:55:25.909Z,8.60
2023-02-22T16:00:36.515Z,9.03
2023-02-22T16:05:43.428Z,8.13
2023-02-22T16:10:55.201Z,7.97
2023-02-22T16:16:02.247Z,9.33
2023-02-22T16:21:11.979Z,8.63
2023-02-22T16:26:29.600Z,8.73
2023-02-22T16:31:35.009Z,8.67
2023-02-22T16:36:40.928Z,9.40
2023-02-22T16:41:45.832Z,8.93
2023-02-22T16:46:49.487Z,9.23
2023-02-22T16:51:55.478Z,7.80
2023-02-22T16:57:02.228Z,8.63
2023-02-22T17:02:07.837Z,8.43
2023-02-22T17:07:11.379Z,8.73
2023-02-22T17:12:16.210Z,9.15
2023-02-22T17:17:19.624Z,8.63
2023-02-22T17:22:24.265Z,8.57
2023-02-22T17:27:29.226Z,9.13
2023-02-22T17:32:32.668Z,9.70
2023-02-22T17:37:36.209Z,8.52
2023-02-22T17:42:41.192Z,6.80
2023-02-22T17:47:45.375Z,9.80
2023-02-22T17:57:59.129Z,8.47
2023-02-22T18:03:04.178Z,8.10
2023-02-22T18:08:07.601Z,6.97
2023-02-22T18:13:16.885Z,7.50
2023-02-22T18:18:22.432Z,6.70
2023-02-22T18:23:28.001Z,7.30
2023-02-22T18:28:32.836Z,6.50
2023-02-22T18:33:36.362Z,7.33
2023-02-22T18:38:43.445Z,6.55
2023-02-22T18:43:48.485Z,7.33
2023-02-22T18:48:54.977Z,6.47
2023-02-22T18:54:01.203Z,6.57
2023-02-22T18:59:06.847Z,7.33
2023-02-22T19:04:12.206Z,6.77
2023-02-22T19:09:15.966Z,6.57
2023-02-22T19:14:21.486Z,6.07
2023-02-22T19:19:26.553Z,6.90
2023-02-22T19:24:30.349Z,6.47
2023-02-22T19:29:38.182Z,6.80
2023-02-22T19:34:44.110Z,6.40
2023-02-22T19:39:47.500Z,6.30
2023-02-22T19:44:53.511Z,7.03
2023-02-22T19:49:59.694Z,6.80
2023-02-22T19:55:03.950Z,5.63
2023-02-22T20:00:11.493Z,6.00
2023-02-22T20:05:16.743Z,5.73
2023-02-22T20:10:20.268Z,5.97
2023-02-22T20:15:25.294Z,5.80
2023-02-22T20:20:30.698Z,6.07
2023-02-22T20:25:35.685Z,6.23
2023-02-22T20:30:40.533Z,6.23
2023-02-22T20:35:44.088Z,5.90
2023-02-22T20:40:48.127Z,6.45
2023-02-22T20:45:53.048Z,6.00
2023-02-22T20:50:56.635Z,6.70
2023-02-22T20:56:00.324Z,7.72
2023-02-22T21:01:12.274Z,6.07
2023-02-22T21:06:17.896Z,6.77
2023-02-22T21:11:22.710Z,6.80
2023-02-22T21:16:29.706Z,6.63
2023-02-22T21:21:33.424Z,6.03
2023-02-22T21:26:36.780Z,6.75
2023-02-22T21:31:41.798Z,5.83
2023-02-22T21:36:46.117Z,6.60
2023-02-22T21:41:52.216Z,6.67
2023-02-22T21:46:57.453Z,6.03
2023-02-22T21:52:01.018Z,6.23
2023-02-22T21:57:06.691Z,7.05
2023-02-22T22:02:12.842Z,6.30
2023-02-22T22:07:17.967Z,6.53
2023-02-22T22:12:26.014Z,7.70
2023-02-22T22:17:33.884Z,6.70
2023-02-22T22:22:37.629Z,5.67
2023-02-22T22:27:41.632Z,6.03
2023-02-22T22:32:46.719Z,6.75
2023-02-22T22:37:51.437Z,6.23
2023-02-22T22:42:55.080Z,6.93
2023-02-22T22:47:59.984Z,6.25
2023-02-22T22:53:03.351Z,6.30
2023-02-22T22:58:06.754Z,6.65
2023-02-22T23:03:18.965Z,6.18
2023-02-22T23:08:29.387Z,6.10
2023-02-22T23:13:33.169Z,6.33
2023-02-22T23:18:38.033Z,5.85
2023-02-22T23:23:41.579Z,6.07
2023-02-22T23:28:46.700Z,7.32
2023-02-22T23:33:52.065Z,5.90
2023-02-22T23:38:56.051Z,6.23
2023-02-22T23:49:06.746Z,6.72
2023-02-22T23:54:13.584Z,6.00
2023-02-22T23:59:17.008Z,5.40
